Time;durP1;ratioP1;P1;durP2;ratioP2;P2;SDS_P1;SDS_P2;PMS_P1;PMS_P2;Temp;Humidity;BMP_temperature;BMP_pressure;BME280_temperature;BME280_humidity;BME280_pressure;Samples;Min_cycle;Max_cycle;Signal;HPM_P1;HPM_P2
2024/02/05 00:04:39;;;;;;;0.15;0.15;;;;;;;9.74;65.55;100397.94;10309041;28;20046;-81
2024/02/05 00:09:41;;;;;;;0.20;0.20;;;;;;;9.75;65.55;100411.84;10346271;28;20058;-81
2024/02/05 00:22:13;;;;;;;0.70;0.38;;;;;;;9.83;65.14;100392.25;10340389;28;20117;-81
2024/02/05 00:27:15;;;;;;;0.28;0.28;;;;;;;9.85;65.05;100384.34;10323766;28;20140;-81
2024/02/05 00:32:17;;;;;;;0.20;0.20;;;;;;;9.74;65.40;100390.09;10364452;28;20076;-81
2024/02/05 00:37:19;;;;;;;0.75;0.50;;;;;;;9.80;65.07;100386.34;10326106;28;20062;-81
2024/02/05 00:42:21;;;;;;;0.13;0.10;;;;;;;9.85;64.83;100381.75;10340895;28;20134;-81
2024/02/05 00:47:23;;;;;;;0.10;0.10;;;;;;;9.88;64.61;100368.50;10338368;28;20057;-82
2024/02/05 00:52:27;;;;;;;0.20;0.20;;;;;;;9.86;64.62;100380.81;10339260;28;20134;-81
2024/02/05 00:57:30;;;;;;;0.10;0.10;;;;;;;9.75;64.69;100394.41;10325975;28;20089;-81
2024/02/05 01:02:32;;;;;;;0.93;0.40;;;;;;;9.94;64.51;100394.34;10302185;28;20047;-81
2024/02/05 01:07:34;;;;;;;0.30;0.30;;;;;;;9.97;64.12;100397.63;10309082;28;20937;-81
2024/02/05 01:12:37;;;;;;;0.82;0.40;;;;;;;10.11;63.97;100402.19;10307650;28;20048;-81
2024/02/05 01:17:39;;;;;;;0.35;0.32;;;;;;;10.13;63.97;100385.50;10298525;28;20054;-81
2024/02/05 01:22:41;;;;;;;0.15;0.15;;;;;;;10.08;63.79;100391.88;10319223;28;20050;-81
2024/02/05 01:27:43;;;;;;;0.20;0.20;;;;;;;9.99;64.07;100390.56;10311848;28;20059;-81
2024/02/05 01:32:46;;;;;;;0.32;0.30;;;;;;;10.09;63.96;100394.44;10316212;28;20051;-81
2024/02/05 01:37:48;;;;;;;2.20;0.47;;;;;;;10.09;63.69;100401.41;10286737;28;20069;-81
2024/02/05 01:42:50;;;;;;;0.32;0.30;;;;;;;9.98;63.77;100394.13;10326454;28;20100;-81
2024/02/05 01:47:53;;;;;;;0.43;0.30;;;;;;;10.20;63.65;100386.88;10314175;28;20062;-81
2024/02/05 01:52:55;;;;;;;0.47;0.22;;;;;;;10.17;63.50;100376.59;10300261;28;20054;-81
2024/02/05 01:57:58;;;;;;;0.63;0.30;;;;;;;10.12;63.69;100369.88;10334513;28;20061;-81
2024/02/05 02:03:06;;;;;;;0.65;0.28;;;;;;;10.11;63.47;100371.69;10314727;28;20450;-81
2024/02/05 02:08:10;;;;;;;0.28;0.28;;;;;;;10.17;63.39;100367.91;10317312;28;20057;-81
2024/02/05 02:13:13;;;;;;;0.30;0.30;;;;;;;9.99;63.85;100368.84;10308524;28;20520;-81
2024/02/05 02:18:22;;;;;;;0.35;0.30;;;;;;;10.10;63.70;100369.97;10322635;28;20120;-81
2024/02/05 02:23:29;;;;;;;0.45;0.30;;;;;;;10.08;63.59;100369.22;10285775;28;20142;-82
2024/02/05 02:28:32;;;;;;;0.57;0.57;;;;;;;10.06;63.67;100372.81;10301246;28;20463;-82
2024/02/05 02:33:53;;;;;;;0.60;0.57;;;;;;;10.05;63.62;100366.78;10298791;28;20105;-82
2024/02/05 02:39:11;;;;;;;0.65;0.30;;;;;;;10.10;63.36;100363.91;10325266;28;20404;-82
2024/02/05 02:44:16;;;;;;;3.83;0.50;;;;;;;10.11;63.49;100382.13;10316615;28;20050;-82
2024/02/05 02:49:18;;;;;;;2.67;0.85;;;;;;;10.08;63.67;100381.41;10315840;28;20092;-81
2024/02/05 02:54:20;;;;;;;0.50;0.50;;;;;;;10.16;63.31;100387.97;10327383;28;20156;-82
2024/02/05 02:59:22;;;;;;;0.63;0.45;;;;;;;10.16;63.24;100387.97;10346962;28;20058;-82
2024/02/05 03:04:25;;;;;;;3.53;1.10;;;;;;;10.15;63.44;100377.59;10328871;28;20050;-81
2024/02/05 03:09:27;;;;;;;0.80;0.43;;;;;;;10.13;63.31;100382.06;10309773;28;20077;-82
2024/02/05 03:14:29;;;;;;;1.10;0.60;;;;;;;10.17;63.06;100391.44;10326964;28;20054;-81
2024/02/05 03:19:32;;;;;;;0.45;0.40;;;;;;;10.18;63.01;100387.88;10347673;28;20065;-81
2024/02/05 03:24:34;;;;;;;1.13;0.45;;;;;;;10.31;62.44;100384.56;10343392;28;20045;-82
2024/02/05 03:29:36;;;;;;;2.45;0.45;;;;;;;10.35;62.83;100393.09;10327966;28;20061;-82
2024/02/05 03:34:38;;;;;;;3.65;0.68;;;;;;;10.20;62.74;100391.25;10323780;28;20050;-81
2024/02/05 03:39:40;;;;;;;2.40;0.70;;;;;;;10.20;62.64;100391.25;10292897;28;20130;-82
2024/02/05 03:44:42;;;;;;;0.60;0.60;;;;;;;10.35;62.45;100400.94;10322228;28;20046;-82
2024/02/05 03:49:44;;;;;;;0.45;0.45;;;;;;;10.26;62.36;100398.78;10324723;28;20076;-82
2024/02/05 03:54:47;;;;;;;4.28;0.90;;;;;;;10.32;62.46;100401.94;10325174;28;20164;-82
2024/02/05 03:59:49;;;;;;;5.25;1.10;;;;;;;10.21;62.61;100403.41;10340459;28;20100;-82
2024/02/05 04:04:51;;;;;;;2.75;0.70;;;;;;;10.28;62.31;100407.38;10326722;28;20050;-81
2024/02/05 04:09:54;;;;;;;0.80;0.60;;;;;;;10.44;62.18;100408.28;10314455;28;20065;-81
2024/02/05 04:14:56;;;;;;;1.60;1.00;;;;;;;10.38;62.27;100416.44;10323679;28;20097;-82
2024/02/05 04:19:58;;;;;;;1.13;0.70;;;;;;;10.38;62.18;100422.53;10299484;28;20065;-81
2024/02/05 04:25:00;;;;;;;1.10;0.90;;;;;;;10.29;62.30;100417.78;10322403;28;20046;-82
2024/02/05 04:30:03;;;;;;;0.93;0.70;;;;;;;10.32;62.50;100419.38;10323637;28;21113;-82
2024/02/05 04:35:07;;;;;;;0.85;0.52;;;;;;;10.39;62.32;100420.78;10307289;28;20050;-82
2024/02/05 04:40:10;;;;;;;2.08;1.10;;;;;;;10.21;62.76;100419.09;10308701;28;20450;-82
2024/02/05 04:45:12;;;;;;;3.83;1.10;;;;;;;10.16;62.47;100423.69;10320866;28;20061;-82
2024/02/05 04:50:14;;;;;;;0.63;0.47;;;;;;;10.08;63.14;100421.47;10305243;28;20068;-82
2024/02/05 04:55:16;;;;;;;2.75;1.20;;;;;;;10.22;62.50;100426.00;10335347;28;20057;-82
2024/02/05 05:00:22;;;;;;;3.05;0.93;;;;;;;10.18;62.72;100424.47;10311816;28;20065;-81
2024/02/05 05:05:24;;;;;;;2.75;0.93;;;;;;;10.16;62.59;100428.91;10322208;28;20069;-81
2024/02/05 05:10:26;;;;;;;1.40;0.82;;;;;;;10.08;62.57;100428.47;10318568;28;20060;-81
2024/02/05 05:15:28;;;;;;;2.47;0.93;;;;;;;10.14;62.61;100436.00;10318355;28;20058;-82
2024/02/05 05:20:38;;;;;;;2.97;1.10;;;;;;;10.03;62.70;100435.69;10314516;28;20054;-80
2024/02/05 05:25:40;;;;;;;1.27;0.77;;;;;;;10.12;62.46;100430.84;10318058;28;20058;-80
2024/02/05 05:30:44;;;;;;;1.55;0.73;;;;;;;10.06;62.31;100435.53;10319227;28;20050;-80
2024/02/05 05:35:46;;;;;;;2.63;0.90;;;;;;;10.09;62.49;100435.41;10309215;28;20141;-80
2024/02/05 05:40:48;;;;;;;6.32;0.90;;;;;;;9.97;62.09;100438.63;10308556;28;20061;-80
2024/02/05 05:45:50;;;;;;;2.22;1.10;;;;;;;10.00;62.19;100441.91;10310391;28;21008;-81
2024/02/05 05:50:52;;;;;;;2.65;1.55;;;;;;;10.08;62.04;100441.53;10294499;28;20066;-81
2024/02/05 05:55:54;;;;;;;3.15;1.10;;;;;;;10.04;62.28;100440.84;10333046;28;20050;-81
2024/02/05 06:00:56;;;;;;;2.20;0.80;;;;;;;10.06;62.20;100440.75;10320730;28;20386;-81
2024/02/05 06:06:04;;;;;;;0.93;0.75;;;;;;;10.12;61.79;100441.31;10334357;28;20519;-81
2024/02/05 06:11:07;;;;;;;3.55;1.35;;;;;;;10.13;62.04;100434.31;10298123;28;20049;-80
2024/02/05 06:16:09;;;;;;;4.60;1.40;;;;;;;10.21;61.81;100432.16;10324454;28;20058;-80
2024/02/05 06:21:11;;;;;;;5.25;1.40;;;;;;;9.99;61.76;100428.94;10329364;28;20112;-80
2024/02/05 06:26:13;;;;;;;3.50;0.90;;;;;;;10.11;61.77;100441.41;10327902;28;20062;-81
2024/02/05 06:31:16;;;;;;;14.82;2.40;;;;;;;10.02;61.74;100439.22;10327054;28;20057;-81
2024/02/05 06:36:18;;;;;;;4.15;1.70;;;;;;;9.93;61.71;100437.06;10309638;28;20463;-81
2024/02/05 06:41:20;;;;;;;6.43;1.58;;;;;;;10.01;61.67;100438.38;10342366;28;20403;-80
2024/02/05 06:46:22;;;;;;;6.72;1.80;;;;;;;10.22;61.04;100439.06;10310125;28;20507;-81
2024/02/05 06:51:25;;;;;;;5.75;1.42;;;;;;;10.08;60.93;100441.53;10327279;28;20054;-81
2024/02/05 06:56:27;;;;;;;5.45;2.20;;;;;;;10.03;61.02;100440.94;10332132;28;20428;-81
2024/02/05 07:01:29;;;;;;;2.50;1.25;;;;;;;10.03;60.86;100448.75;10324840;28;20050;-81
2024/02/05 07:06:31;;;;;;;3.30;1.50;;;;;;;10.02;60.76;100428.75;10322504;28;20046;-81
2024/02/05 07:11:33;;;;;;;7.47;1.35;;;;;;;10.00;60.87;100433.22;10313145;28;20054;-81
2024/02/05 07:16:35;;;;;;;9.38;1.30;;;;;;;9.83;60.69;100439.28;10311608;28;20054;-81
2024/02/05 07:21:38;;;;;;;5.22;2.00;;;;;;;9.82;60.52;100432.38;10314947;28;20058;-81
2024/02/05 07:26:40;;;;;;;8.48;2.13;;;;;;;9.80;60.61;100435.97;10322453;28;20073;-81
2024/02/05 07:31:42;;;;;;;4.78;2.03;;;;;;;9.76;60.36;100450.94;10312299;28;20567;-81
2024/02/05 07:36:44;;;;;;;6.40;1.85;;;;;;;9.97;59.90;100441.22;10295181;28;20057;-82
2024/02/05 07:41:46;;;;;;;4.00;1.70;;;;;;;9.96;59.51;100450.81;10304111;28;20053;-81
2024/02/05 07:46:48;;;;;;;6.00;1.90;;;;;;;10.06;58.87;100446.84;10322893;28;20530;-82
2024/02/05 07:51:51;;;;;;;3.85;1.75;;;;;;;10.19;59.10;100457.53;10310885;28;20069;-81
2024/02/05 07:56:56;;;;;;;3.83;1.40;;;;;;;10.30;59.01;100460.44;10315742;28;20504;-81
2024/02/05 08:02:00;;;;;;;5.13;1.92;;;;;;;10.43;58.59;100461.53;10274694;28;20078;-81
2024/02/05 08:07:04;;;;;;;2.80;1.27;;;;;;;10.45;58.31;100460.53;10254444;28;20047;-81
2024/02/05 08:12:07;;;;;;;7.03;2.35;;;;;;;10.75;56.55;100467.72;10223170;29;20051;-81
2024/02/05 08:17:10;;;;;;;6.90;1.73;;;;;;;10.90;57.61;100466.94;10225936;28;20062;-81
2024/02/05 08:22:12;;;;;;;3.33;1.73;;;;;;;10.92;57.52;100465.94;10239947;28;20058;-80
2024/02/05 08:27:14;;;;;;;6.45;1.98;;;;;;;10.70;56.64;100467.13;10235245;28;20126;-81
2024/02/05 08:32:17;;;;;;;6.18;1.80;;;;;;;10.48;56.89;100472.63;10239466;29;20061;-81
2024/02/05 08:37:19;;;;;;;4.35;1.38;;;;;;;10.66;57.42;100478.66;10238451;28;20429;-81
2024/02/05 08:42:22;;;;;;;3.70;1.67;;;;;;;10.53;56.28;100473.22;10240981;28;20066;-81
2024/02/05 08:47:34;;;;;;;7.78;1.95;;;;;;;10.48;57.15;100470.00;10227808;29;20082;-81
2024/02/05 08:52:37;;;;;;;2.70;1.27;;;;;;;10.50;56.27;100461.13;10241053;28;20172;-82
2024/02/05 08:57:41;;;;;;;6.63;2.38;;;;;;;10.58;56.75;100460.75;10237592;29;20602;-81
2024/02/05 09:02:48;;;;;;;6.13;1.70;;;;;;;10.60;55.95;100461.53;10223394;29;20059;-82
2024/02/05 09:07:52;;;;;;;7.40;2.13;;;;;;;10.76;55.83;100453.72;10236074;29;20055;-81
2024/02/05 09:12:55;;;;;;;4.65;1.80;;;;;;;10.88;56.07;100445.22;10235795;29;20063;-81
2024/02/05 09:17:57;;;;;;;3.67;1.88;;;;;;;10.73;56.45;100441.63;10224190;29;20055;-81
2024/02/05 09:22:59;;;;;;;5.88;1.80;;;;;;;10.54;56.10;100438.31;10238307;28;20520;-81
2024/02/05 09:28:01;;;;;;;5.63;1.45;;;;;;;10.82;55.75;100446.41;10223774;29;20063;-81
2024/02/05 09:33:04;;;;;;;2.65;1.50;;;;;;;10.72;56.13;100447.81;10238875;28;20059;-81
2024/02/05 09:38:06;;;;;;;4.20;1.70;;;;;;;10.77;55.89;100451.00;10250625;28;20142;-81
2024/02/05 09:43:10;;;;;;;2.97;1.63;;;;;;;10.69;55.94;100454.94;10239572;29;20047;-81
2024/02/05 09:48:14;;;;;;;6.47;1.65;;;;;;;10.71;55.77;100450.47;10255589;28;20055;-78
2024/02/05 09:53:34;;;;;;;;;;;;;;;10.69;55.04;100453.19;10240258;29;20044;-78
2024/02/05 09:58:36;;;;;;;6.90;2.25;;;;;;;10.83;54.98;100455.94;10277535;28;19922;-78
2024/02/05 10:03:38;;;;;;;17.10;2.40;;;;;;;11.07;55.02;100449.44;10281274;28;20142;-78
2024/02/05 10:08:41;;;;;;;6.25;2.08;;;;;;;11.09;54.63;100437.09;10265706;28;20090;-78
2024/02/05 10:13:44;;;;;;;3.47;1.40;;;;;;;11.06;54.50;100441.66;10260495;28;20046;-78
2024/02/05 10:18:46;;;;;;;4.78;1.50;;;;;;;11.11;54.56;100430.00;10276740;28;20066;-78
2024/02/05 10:23:55;;;;;;;3.20;2.20;;;;;;;11.32;54.09;100442.88;10285134;28;20497;-78
2024/02/05 10:29:06;;;;;;;4.95;2.10;;;;;;;11.17;53.43;100444.56;10279435;28;20141;-78
2024/02/05 10:34:13;;;;;;;5.90;1.63;;;;;;;11.08;53.21;100432.81;10274841;28;20046;-78
2024/02/05 10:39:22;;;;;;;6.95;2.00;;;;;;;11.23;52.83;100425.91;10274539;28;20472;-78
2024/02/05 10:44:26;;;;;;;4.72;0.98;;;;;;;11.46;52.73;100430.69;10276857;28;20097;-78
2024/02/05 10:49:43;;;;;;;5.05;2.08;;;;;;;11.57;51.98;100433.59;10274141;28;20051;-78
2024/02/05 10:54:47;;;;;;;2.80;1.40;;;;;;;11.75;52.91;100427.31;10264281;28;20066;-78
2024/02/05 10:59:50;;;;;;;3.35;1.98;;;;;;;11.54;52.49;100418.03;10283925;28;20042;-77
2024/02/05 11:04:55;;;;;;;5.90;1.23;;;;;;;11.66;52.16;100422.56;10274166;28;20046;-77
2024/02/05 11:10:01;;;;;;;9.00;1.73;;;;;;;11.61;52.86;100406.28;10279464;28;20050;-78
2024/02/05 11:15:10;;;;;;;3.83;1.38;;;;;;;11.68;51.72;100406.78;10281047;28;20451;-78
2024/02/05 11:20:13;;;;;;;5.15;2.13;;;;;;;11.52;52.01;100398.09;10280530;28;20050;-77
2024/02/05 11:25:17;;;;;;;4.85;1.67;;;;;;;11.32;52.04;100398.38;10281085;28;20061;-78
2024/02/05 11:30:19;;;;;;;5.45;1.25;;;;;;;11.56;52.32;100389.16;10255674;28;20061;-78
2024/02/05 11:35:29;;;;;;;3.65;1.60;;;;;;;11.53;52.18;100400.63;10271809;28;20115;-78
2024/02/05 11:40:32;;;;;;;6.33;2.47;;;;;;;11.62;52.38;100392.22;10272692;28;20058;-78
2024/02/05 11:45:36;;;;;;;2.38;1.27;;;;;;;11.60;51.93;100381.00;10248258;28;20142;-78
2024/02/05 11:50:38;;;;;;;6.32;1.40;;;;;;;11.68;52.06;100373.53;10251030;28;20050;-78
2024/02/05 11:55:41;;;;;;;8.02;1.45;;;;;;;11.60;52.13;100357.41;10280751;28;20624;-78
2024/02/05 12:00:43;;;;;;;8.20;1.85;;;;;;;11.80;51.08;100358.91;10264749;28;20522;-78
2024/02/05 12:05:45;;;;;;;4.95;1.65;;;;;;;11.89;51.95;100360.97;10278088;28;20366;-78
2024/02/05 12:10:48;;;;;;;3.90;1.50;;;;;;;11.88;51.82;100365.41;10270009;28;20051;-78
2024/02/05 12:15:50;;;;;;;4.00;1.65;;;;;;;11.87;50.71;100353.22;10265165;28;20138;-78
2024/02/05 12:20:58;;;;;;;6.47;2.55;;;;;;;11.91;51.08;100343.38;10251800;28;20058;-78
2024/02/05 12:26:02;;;;;;;2.13;1.23;;;;;;;11.85;51.40;100349.00;10283290;28;20462;-78
2024/02/05 12:31:04;;;;;;;4.40;1.80;;;;;;;11.69;51.00;100354.28;10263525;28;20073;-78
2024/02/05 12:36:07;;;;;;;2.97;1.35;;;;;;;11.84;50.46;100350.78;10273087;28;20057;-78
2024/02/05 12:41:10;;;;;;;4.88;1.95;;;;;;;11.85;50.69;100339.38;10268842;28;20129;-78
2024/02/05 12:46:13;;;;;;;6.15;1.63;;;;;;;11.89;50.91;100337.41;10261430;28;20134;-77
2024/02/05 12:51:15;;;;;;;5.03;1.85;;;;;;;11.73;50.63;100323.50;10261082;28;20413;-78
2024/02/05 12:56:18;;;;;;;3.55;1.60;;;;;;;11.83;50.81;100319.41;10243326;28;20054;-78
2024/02/05 13:01:22;;;;;;;2.53;1.20;;;;;;;11.89;50.73;100296.31;10271650;28;20050;-78
2024/02/05 13:06:25;;;;;;;1.80;1.17;;;;;;;11.93;50.81;100294.34;10260323;28;20916;-78
2024/02/05 13:11:30;;;;;;;4.90;1.73;;;;;;;12.02;50.37;100289.41;10263174;28;20054;-78
2024/02/05 13:16:34;;;;;;;5.97;1.45;;;;;;;11.85;50.54;100291.34;10263781;28;20066;-78
2024/02/05 13:21:36;;;;;;;7.18;1.92;;;;;;;11.75;50.19;100285.81;10261327;28;20129;-78
2024/02/05 13:26:40;;;;;;;2.63;1.23;;;;;;;11.84;50.51;100273.94;10287068;28;20046;-78
2024/02/05 13:31:43;;;;;;;6.97;2.35;;;;;;;11.97;50.04;100285.38;10293264;28;20142;-78
2024/02/05 13:36:45;;;;;;;5.78;2.05;;;;;;;11.84;50.40;100277.41;10277907;28;20065;-78
2024/02/05 13:41:48;;;;;;;4.50;2.05;;;;;;;11.88;50.30;100265.81;10284523;28;20504;-77
2024/02/05 13:46:50;;;;;;;7.43;1.73;;;;;;;12.11;50.21;100261.78;10284937;28;20082;-78
2024/02/05 13:51:52;;;;;;;5.15;1.77;;;;;;;11.93;49.77;100247.16;10283072;28;20066;-78
2024/02/05 13:56:54;;;;;;;7.75;2.22;;;;;;;11.97;50.18;100254.75;10266678;28;20055;-78
2024/02/05 14:01:56;;;;;;;7.15;2.00;;;;;;;11.77;49.96;100238.53;10273434;28;20054;-78
2024/02/05 14:06:59;;;;;;;2.50;1.50;;;;;;;12.00;49.61;100230.16;10273343;28;20070;-78
2024/02/05 14:12:01;;;;;;;3.38;1.83;;;;;;;12.04;49.90;100247.38;10285292;28;20046;-78
2024/02/05 14:17:06;;;;;;;4.65;1.80;;;;;;;12.00;49.26;100241.47;10288511;28;20073;-78
2024/02/05 14:22:09;;;;;;;4.32;2.13;;;;;;;12.08;49.25;100233.16;10280068;28;20051;-79
2024/02/05 14:27:11;;;;;;;5.30;1.63;;;;;;;12.14;49.70;100225.75;10277167;28;20186;-77
2024/02/05 14:32:14;;;;;;;5.80;1.92;;;;;;;11.99;49.67;100231.06;10277036;28;20101;-77
2024/02/05 14:37:16;;;;;;;8.63;1.52;;;;;;;11.93;49.70;100234.91;10268415;28;20057;-77
2024/02/05 14:42:18;;;;;;;4.78;1.85;;;;;;;11.87;50.14;100216.09;10288251;28;20520;-77
2024/02/05 14:47:20;;;;;;;2.83;1.48;;;;;;;11.65;49.79;100220.94;10256496;28;20059;-78
2024/02/05 14:52:23;;;;;;;9.43;2.17;;;;;;;11.49;50.01;100215.78;10280504;28;20394;-78
2024/02/05 14:57:26;;;;;;;4.85;1.50;;;;;;;11.44;50.39;100216.97;10251438;28;20677;-78
2024/02/05 15:02:28;;;;;;;4.35;1.30;;;;;;;11.12;50.73;100222.31;10280335;28;20053;-77
2024/02/05 15:07:58;;;;;;;7.43;2.00;;;;;;;11.16;50.70;100217.72;10274085;28;20078;-77
2024/02/05 15:13:02;;;;;;;3.97;1.17;;;;;;;11.02;51.15;100215.03;10268475;28;20058;-75
2024/02/05 15:18:06;;;;;;;7.00;2.17;;;;;;;10.98;50.98;100229.22;10278701;28;20492;-76
2024/02/05 15:23:08;;;;;;;5.40;2.22;;;;;;;10.85;51.54;100222.97;10279026;28;20387;-75
2024/02/05 15:28:10;;;;;;;6.78;2.00;;;;;;;10.72;51.83;100235.91;10279748;28;20043;-75
2024/02/05 15:33:15;;;;;;;4.10;1.33;;;;;;;10.58;51.78;100230.59;10274143;28;20059;-75
2024/02/05 15:38:17;;;;;;;6.53;1.63;;;;;;;10.33;52.21;100222.41;10293080;28;20065;-77
2024/02/05 15:43:19;;;;;;;4.75;1.88;;;;;;;10.16;52.83;100228.53;10282229;28;20053;-76
2024/02/05 15:48:22;;;;;;;4.65;1.77;;;;;;;10.17;52.90;100237.22;10272218;28;20062;-76
2024/02/05 15:53:24;;;;;;;6.32;2.60;;;;;;;9.89;53.27;100237.81;10278643;28;20588;-76
2024/02/05 15:58:26;;;;;;;7.57;2.85;;;;;;;9.88;53.40;100232.66;10269575;28;20047;-76
2024/02/05 16:03:28;;;;;;;3.35;1.90;;;;;;;9.68;53.71;100241.53;10275580;28;20113;-77
2024/02/05 16:08:31;;;;;;;8.35;2.03;;;;;;;9.55;54.17;100241.28;10266432;28;20059;-77
2024/02/05 16:13:33;;;;;;;5.63;1.73;;;;;;;9.34;54.51;100247.56;10266378;28;20047;-76
2024/02/05 16:18:36;;;;;;;6.13;1.65;;;;;;;9.08;55.23;100237.56;10244328;28;20051;-77
2024/02/05 16:23:38;;;;;;;8.63;2.70;;;;;;;8.97;55.50;100249.47;10251301;28;20051;-77
2024/02/05 16:28:40;;;;;;;6.55;1.58;;;;;;;8.79;56.03;100248.59;10283303;28;20134;-77
2024/02/05 16:33:42;;;;;;;5.78;2.22;;;;;;;8.69;56.26;100237.72;10294906;28;20146;-77
2024/02/05 16:38:46;;;;;;;6.68;1.83;;;;;;;8.42;57.26;100240.78;10279134;28;20063;-77
2024/02/05 16:43:48;;;;;;;3.05;1.75;;;;;;;8.61;56.54;100228.56;10268596;28;20501;-77
2024/02/05 16:53:04;;;;;;;7.25;2.50;;;;;;;8.03;58.42;100220.81;10466088;28;20123;-59
2024/02/05 16:58:06;;;;;;;10.15;2.17;;;;;;;8.04;57.98;100212.06;10467651;28;20199;-59
2024/02/05 17:03:08;;;;;;;5.70;2.45;;;;;;;8.00;58.36;100202.69;10462761;28;20048;-59
2024/02/05 17:08:11;;;;;;;7.20;2.38;;;;;;;8.00;58.15;100213.09;10450099;28;20515;-59
2024/02/05 17:13:14;;;;;;;6.20;1.73;;;;;;;7.87;58.72;100198.09;10466472;28;20056;-59
2024/02/05 17:18:16;;;;;;;9.82;2.00;;;;;;;7.88;58.85;100195.44;10466884;28;21036;-59
2024/02/05 17:23:18;;;;;;;5.97;1.88;;;;;;;7.70;59.34;100201.44;10464180;28;20055;-59
2024/02/05 17:28:21;;;;;;;7.68;2.17;;;;;;;7.85;58.64;100195.53;10463185;28;20098;-59
2024/02/05 17:33:24;;;;;;;4.88;1.70;;;;;;;7.80;58.75;100196.69;10465593;28;20825;-59
2024/02/05 17:38:27;;;;;;;4.28;1.60;;;;;;;7.73;59.13;100201.28;10464373;28;20044;-59
2024/02/05 17:43:29;;;;;;;6.47;1.95;;;;;;;7.72;59.16;100203.97;10466142;28;20048;-59
2024/02/05 17:48:33;;;;;;;6.97;2.42;;;;;;;7.74;58.90;100187.38;10465928;28;20151;-59
2024/02/05 17:53:35;;;;;;;8.00;2.30;;;;;;;7.64;58.95;100188.69;10464135;28;20053;-59
2024/02/05 17:58:38;;;;;;;4.25;1.65;;;;;;;7.52;59.41;100194.44;10463611;28;20048;-59
2024/02/05 18:03:41;;;;;;;5.38;1.85;;;;;;;7.60;59.29;100197.56;10440057;28;20049;-59
2024/02/05 18:08:44;;;;;;;8.18;2.05;;;;;;;7.55;59.11;100191.69;10436702;28;20103;-62
2024/02/05 18:13:46;;;;;;;10.60;2.25;;;;;;;7.54;59.07;100189.16;10435356;28;20056;-61
2024/02/05 18:18:48;;;;;;;7.53;2.50;;;;;;;7.37;59.80;100199.44;10435827;28;20081;-61
2024/02/05 18:23:50;;;;;;;5.75;2.30;;;;;;;7.49;59.26;100197.16;10437353;28;20045;-61
2024/02/05 18:28:54;;;;;;;4.88;2.03;;;;;;;7.48;59.15;100213.69;10437274;28;20088;-61
2024/02/05 18:33:56;;;;;;;8.98;2.40;;;;;;;7.40;59.36;100213.19;10436720;28;20052;-61
2024/02/05 18:38:59;;;;;;;4.20;2.05;;;;;;;7.38;59.44;100206.34;10435347;28;20044;-61
2024/02/05 18:44:01;;;;;;;4.28;2.10;;;;;;;7.40;59.52;100220.13;10435241;28;20069;-61
2024/02/05 18:49:03;;;;;;;8.68;2.47;;;;;;;7.28;60.04;100216.31;10434663;28;20060;-61
2024/02/05 18:54:08;;;;;;;6.72;2.05;;;;;;;7.43;59.65;100207.81;10435024;28;20041;-61
2024/02/05 18:59:10;;;;;;;6.45;2.50;;;;;;;7.47;59.35;100209.38;10432920;28;20056;-62
2024/02/05 19:04:12;;;;;;;6.88;2.35;;;;;;;7.41;59.44;100216.59;10435556;28;20610;-62
2024/02/05 19:09:17;;;;;;;3.92;1.83;;;;;;;7.52;59.13;100228.28;10434430;28;20418;-61
2024/02/05 19:14:19;;;;;;;4.97;1.88;;;;;;;7.67;58.99;100221.56;10433999;28;20045;-62
2024/02/05 19:19:22;;;;;;;10.75;2.28;;;;;;;7.69;58.95;100210.16;10434750;28;20045;-61
2024/02/05 19:24:29;;;;;;;8.73;3.08;;;;;;;7.60;58.99;100215.78;10435597;28;20044;-61
2024/02/05 19:29:33;;;;;;;7.03;2.42;;;;;;;7.64;58.75;100214.72;10434320;28;20055;-61
2024/02/05 19:34:35;;;;;;;6.47;2.60;;;;;;;7.55;59.01;100204.69;10434304;28;20049;-62
2024/02/05 19:39:39;;;;;;;5.32;2.42;;;;;;;7.41;58.98;100207.06;10432723;28;20918;-61
2024/02/05 19:44:43;;;;;;;5.75;1.88;;;;;;;7.31;59.49;100207.50;10432904;28;20080;-61
2024/02/05 19:49:45;;;;;;;8.73;3.13;;;;;;;7.29;59.27;100194.56;10433192;28;20040;-61
2024/02/05 19:54:47;;;;;;;9.10;2.45;;;;;;;7.27;59.35;100180.78;10432979;28;20106;-61
2024/02/05 19:59:50;;;;;;;9.75;2.70;;;;;;;7.23;59.33;100186.16;10433005;28;20515;-61
2024/02/05 20:04:52;;;;;;;9.52;2.72;;;;;;;7.22;59.60;100182.75;10424033;28;20091;-61
2024/02/05 20:09:54;;;;;;;8.30;3.20;;;;;;;7.34;59.26;100181.38;10431222;28;20079;-61
2024/02/05 20:15:02;;;;;;;4.93;2.20;;;;;;;7.30;59.39;100169.41;10430986;28;20136;-61
2024/02/05 20:20:06;;;;;;;7.28;3.20;;;;;;;7.26;59.21;100175.66;10431120;28;20175;-61
2024/02/05 20:25:09;;;;;;;8.23;3.05;;;;;;;7.13;59.61;100177.91;10432155;28;20501;-61
2024/02/05 20:30:13;;;;;;;9.35;2.70;;;;;;;7.08;59.79;100180.69;10432220;28;20457;-62
2024/02/05 20:35:17;;;;;;;8.30;2.65;;;;;;;7.23;59.36;100184.41;10429604;28;20045;-61
2024/02/05 20:40:20;;;;;;;7.93;3.03;;;;;;;7.20;59.26;100185.38;10431360;28;20057;-61
2024/02/05 20:45:22;;;;;;;8.13;2.97;;;;;;;7.14;59.38;100190.84;10432291;28;20053;-61
2024/02/05 20:50:29;;;;;;;8.88;2.97;;;;;;;7.25;59.41;100193.00;10430458;28;20056;-61
2024/02/05 20:55:34;;;;;;;7.82;2.45;;;;;;;7.41;59.07;100208.78;10429997;28;20041;-61
2024/02/05 21:00:37;;;;;;;5.63;2.30;;;;;;;7.41;58.78;100207.06;10429937;28;20044;-61
2024/02/05 21:05:39;;;;;;;6.22;1.95;;;;;;;7.32;58.81;100204.84;10419298;28;20052;-61
2024/02/05 21:10:41;;;;;;;5.40;2.58;;;;;;;7.46;58.55;100206.88;10429319;28;20136;-62
2024/02/05 21:15:43;;;;;;;14.77;2.85;;;;;;;7.52;58.31;100207.44;10430410;28;20056;-61
2024/02/05 21:20:45;;;;;;;9.48;2.85;;;;;;;7.44;58.53;100209.53;10429564;28;20393;-60
2024/02/05 21:25:47;;;;;;;10.77;2.95;;;;;;;7.57;58.17;100200.28;10429943;28;20060;-61
2024/02/05 21:30:49;;;;;;;10.05;3.63;;;;;;;7.65;58.19;100202.56;10429145;28;20048;-61
2024/02/05 21:35:51;;;;;;;6.78;2.67;;;;;;;7.64;58.27;100201.72;10429986;28;20037;-61
2024/02/05 21:40:53;;;;;;;8.45;3.20;;;;;;;7.63;58.23;100199.19;10436973;28;20211;-61
2024/02/05 21:45:56;;;;;;;8.90;2.72;;;;;;;7.62;57.99;100197.47;10437678;28;20599;-61
2024/02/05 21:50:58;;;;;;;8.63;2.90;;;;;;;7.55;58.27;100201.28;10437169;28;20111;-61
2024/02/05 21:56:00;;;;;;;7.25;3.50;;;;;;;7.83;57.76;100191.34;10436814;28;20136;-61
2024/02/05 22:01:02;;;;;;;6.68;3.75;;;;;;;7.65;57.74;100192.16;10435235;28;20408;-61
2024/02/05 22:06:04;;;;;;;9.70;3.40;;;;;;;7.50;58.22;100185.84;10436584;28;20037;-61
2024/02/05 22:11:06;;;;;;;10.98;4.10;;;;;;;7.64;58.15;100199.13;10435067;28;20057;-61
2024/02/05 22:16:08;;;;;;;9.38;3.28;;;;;;;7.62;58.01;100194.88;10435031;28;20132;-61
2024/02/05 22:21:10;;;;;;;9.02;3.58;;;;;;;7.41;58.21;100194.03;10436779;28;20055;-61
2024/02/05 22:26:12;;;;;;;13.48;3.28;;;;;;;7.47;58.34;100193.78;10436960;28;20048;-61
2024/02/05 22:31:14;;;;;;;11.02;3.60;;;;;;;7.58;58.35;100194.19;10437134;28;20053;-60
2024/02/05 22:36:16;;;;;;;13.65;3.00;;;;;;;7.61;58.02;100190.59;10435697;28;20044;-60
2024/02/05 22:41:18;;;;;;;9.00;3.20;;;;;;;7.54;58.17;100194.38;10436756;28;20041;-61
2024/02/05 22:46:20;;;;;;;6.50;2.42;;;;;;;7.64;58.23;100200.88;10436217;28;20102;-61
2024/02/05 22:51:22;;;;;;;15.93;4.00;;;;;;;7.65;57.99;100194.75;10436744;28;20061;-61
2024/02/05 22:56:24;;;;;;;14.82;3.33;;;;;;;7.51;58.24;100195.34;10436545;28;20473;-60
2024/02/05 23:01:27;;;;;;;9.27;3.47;;;;;;;7.79;57.78;100189.78;10437393;28;20080;-60
2024/02/05 23:06:29;;;;;;;10.75;3.60;;;;;;;7.62;58.14;100187.06;10436706;28;20045;-61
2024/02/05 23:11:31;;;;;;;12.25;2.88;;;;;;;7.62;58.24;100189.66;10436667;28;20052;-61
2024/02/05 23:16:33;;;;;;;6.85;3.03;;;;;;;7.72;57.97;100184.00;10435898;28;20587;-60
2024/02/05 23:21:35;;;;;;;10.50;3.00;;;;;;;7.62;58.10;100187.91;10435977;28;20078;-60
2024/02/05 23:26:41;;;;;;;7.63;3.78;;;;;;;7.71;57.95;100184.06;10436002;28;20227;-60
2024/02/05 23:31:43;;;;;;;14.25;3.33;;;;;;;7.89;57.93;100189.31;10434482;28;20139;-61